This is the latest recevied weather packets stored in our database for station/object WW3TRG. If no packets are shown the sender has not sent any weather packets the latest 10 day(s).
| Time | Temp. | Humidity | Pressure | Rain* | Wind** | Luminosity | Snow |
|---|---|---|---|---|---|---|---|
| 1778220543 | 8.89° C | 84% | 1011.4 hPa | 1.27 mm | - | 0 W/m² | - |
| 1778220241 | 9.44° C | 79% | 1011.1 hPa | 0.51 mm | - | 0 W/m² | - |
| 1778219941 | 10° C | 75% | 1011.6 hPa | 0 mm | - | 0 W/m² | - |
| 1778219639 | 10° C | 73% | 1011.5 hPa | 0 mm | - | 0 W/m² | - |
| 1778219335 | 10° C | 72% | 1011.5 hPa | 0 mm | - | 0 W/m² | - |
| 1778219032 | 10° C | 72% | 1011.4 hPa | 0 mm | - | 0 W/m² | - |
| 1778218729 | 10° C | 77% | 1011.3 hPa | 0 mm | - | 0 W/m² | - |
| 1778218427 | 10.56° C | 74% | 1011.1 hPa | 0 mm | - | 0 W/m² | - |
| 1778218124 | 10° C | 72% | 1010.7 hPa | 0 mm | - | 0 W/m² | - |
| 1778217821 | 10.56° C | 74% | 1010.6 hPa | 0 mm | - | 0 W/m² | - |
| 1778217517 | 10° C | 76% | 1010.4 hPa | 0 mm | - | 0 W/m² | - |
| 1778217213 | 8.89° C | 86% | 1010.7 hPa | 0 mm | - | 0 W/m² | - |
| 1778216909 | 8.33° C | 96% | 1010.1 hPa | 0 mm | - | 0 W/m² | - |
| 1778216607 | 8.89° C | 96% | 1010 hPa | 0 mm | - | 0 W/m² | - |
| 1778216302 | 8.89° C | 95% | 1009.8 hPa | 0 mm | - | 0 W/m² | - |
| 1778216000 | 8.89° C | 95% | 1009.7 hPa | 0 mm | - | 0 W/m² | - |
| 1778215698 | 8.89° C | 94% | 1009.6 hPa | 0 mm | - | 0 W/m² | - |
| 1778215394 | 9.44° C | 94% | 1009.5 hPa | 0 mm | - | 0 W/m² | - |
| 1778215090 | 9.44° C | 94% | 1009.5 hPa | 0 mm | - | 0 W/m² | - |
| 1778214788 | 9.44° C | 92% | 1009.7 hPa | 0 mm | - | 0 W/m² | - |
| 1778214484 | 10° C | 91% | 1009.4 hPa | 0 mm | - | 0 W/m² | - |
| 1778214182 | 10° C | 89% | 1009.6 hPa | 0.51 mm | - | 0 W/m² | - |
| 1778213878 | 10.56° C | 84% | 1009.8 hPa | 0.51 mm | - | 0 W/m² | - |
| 1778213575 | 10.56° C | 79% | 1009.8 hPa | 0 mm | - | 0 W/m² | - |
| 1778213271 | 11.67° C | 74% | 1010 hPa | 0 mm | - | 0 W/m² | - |
* Rain latest hour (hover to see other rain measurements)
** Current wind speed in m/s (hover to see current wind gust speed)